Time;durP1;ratioP1;P1;durP2;ratioP2;P2;SDS_P1;SDS_P2;PMS_P1;PMS_P2;Temp;Humidity;BMP_temperature;BMP_pressure;BME280_temperature;BME280_humidity;BME280_pressure;Samples;Min_cycle;Max_cycle;Signal;HPM_P1;HPM_P2
2021/06/09 00:00:33;;;;;;;6.93;6.50;;;;;23.40;101068.00;;;;2070941;28;20214;-57
2021/06/09 00:01:33;;;;;;;7.10;6.60;;;;;23.40;101068.00;;;;2070110;28;20214;-57
2021/06/09 00:02:34;;;;;;;7.20;6.70;;;;;23.40;101075.00;;;;2074369;28;20218;-57
2021/06/09 00:03:34;;;;;;;6.90;6.40;;;;;23.40;101066.00;;;;2072491;28;20231;-57
2021/06/09 00:04:35;;;;;;;6.00;5.60;;;;;23.40;101067.00;;;;2071711;28;20237;-57
2021/06/09 00:05:35;;;;;;;6.70;6.30;;;;;23.40;101057.00;;;;2070955;28;20780;-58
2021/06/09 00:06:36;;;;;;;7.80;7.30;;;;;23.40;101059.00;;;;2071029;28;20582;-57
2021/06/09 00:07:36;;;;;;;6.97;6.50;;;;;23.40;101028.00;;;;2071321;28;20210;-58
2021/06/09 00:08:37;;;;;;;6.50;6.10;;;;;23.40;101063.00;;;;2079112;28;20581;-57
2021/06/09 00:09:37;;;;;;;7.47;6.97;;;;;23.40;101058.00;;;;2078512;28;20628;-57
2021/06/09 00:10:38;;;;;;;6.80;6.30;;;;;23.40;101060.00;;;;2078913;28;20218;-58
2021/06/09 00:11:38;;;;;;;6.63;6.23;;;;;23.40;101063.00;;;;2077926;28;20217;-58
2021/06/09 00:12:38;;;;;;;7.40;6.90;;;;;23.40;101068.00;;;;2079115;28;20213;-58
2021/06/09 00:13:39;;;;;;;6.87;6.37;;;;;23.40;101067.00;;;;2078971;28;20224;-57
2021/06/09 00:14:39;;;;;;;6.30;5.90;;;;;23.40;101068.00;;;;2079029;28;20226;-58
2021/06/09 00:15:39;;;;;;;6.87;6.37;;;;;23.40;101061.00;;;;2079153;28;20217;-59
2021/06/09 00:16:40;;;;;;;7.40;6.90;;;;;23.40;101063.00;;;;2078893;28;20301;-57
2021/06/09 00:17:40;;;;;;;6.93;6.53;;;;;23.40;101069.00;;;;2079128;28;20747;-58
2021/06/09 00:18:41;;;;;;;6.80;6.40;;;;;23.40;101066.00;;;;2078928;28;20213;-57
2021/06/09 00:19:41;;;;;;;7.10;6.60;;;;;23.30;101074.00;;;;2079074;28;20581;-58
2021/06/09 00:20:41;;;;;;;7.17;6.67;;;;;23.40;101072.00;;;;2078851;28;20217;-57
2021/06/09 00:21:47;;;;;;;7.10;6.50;;;;;23.40;101073.00;;;;2078082;28;20209;-57
2021/06/09 00:22:47;;;;;;;6.80;6.35;;;;;23.40;101074.00;;;;2078795;28;20713;-58
2021/06/09 00:23:48;;;;;;;6.90;6.40;;;;;23.40;101078.00;;;;2079048;28;20214;-57
2021/06/09 00:24:48;;;;;;;6.80;6.30;;;;;23.30;101070.00;;;;2078993;28;20290;-57
2021/06/09 00:25:51;;;;;;;7.10;6.60;;;;;23.40;101073.00;;;;2078735;28;20220;-59
2021/06/09 00:26:51;;;;;;;6.63;6.22;;;;;23.40;101078.00;;;;2079210;28;20220;-58
2021/06/09 00:27:53;;;;;;;7.70;7.10;;;;;23.30;101083.00;;;;2079091;28;20242;-57
2021/06/09 00:28:54;;;;;;;6.95;6.50;;;;;23.40;101076.00;;;;2078855;28;20209;-57
2021/06/09 00:29:54;;;;;;;7.83;7.23;;;;;23.40;101070.00;;;;2079146;28;20202;-57
2021/06/09 00:30:54;;;;;;;7.10;6.60;;;;;23.40;101082.00;;;;2078579;28;20281;-57
2021/06/09 00:31:55;;;;;;;6.57;6.17;;;;;23.40;101071.00;;;;2068464;28;20201;-58
2021/06/09 00:32:56;;;;;;;7.23;6.63;;;;;23.40;101069.00;;;;2086677;28;20224;-58
2021/06/09 00:33:56;;;;;;;7.50;7.00;;;;;23.40;101068.00;;;;2085430;28;20622;-57
2021/06/09 00:34:57;;;;;;;6.97;6.57;;;;;23.40;101067.00;;;;2072400;28;20318;-59
2021/06/09 00:35:58;;;;;;;7.03;6.53;;;;;23.40;101060.00;;;;2070846;28;20237;-58
2021/06/09 00:36:58;;;;;;;7.07;6.60;;;;;23.40;101061.00;;;;2070960;28;20973;-57
2021/06/09 00:37:59;;;;;;;6.97;6.47;;;;;23.40;101064.00;;;;2072392;28;20253;-58
2021/06/09 00:38:59;;;;;;;7.30;6.80;;;;;23.40;101075.00;;;;2072331;28;20210;-57
2021/06/09 00:39:59;;;;;;;7.60;7.00;;;;;23.40;101075.00;;;;2071687;28;20233;-58
2021/06/09 00:41:00;;;;;;;6.90;6.40;;;;;23.30;101071.00;;;;2070808;28;20226;-59
2021/06/09 00:42:00;;;;;;;7.67;7.17;;;;;23.30;101073.00;;;;2071655;28;20210;-58
2021/06/09 00:43:21;;;;;;;7.13;6.63;;;;;23.30;101068.00;;;;2071802;28;20221;-57
2021/06/09 00:44:21;;;;;;;7.80;7.20;;;;;23.30;101064.00;;;;2071743;28;20879;-57
2021/06/09 00:45:21;;;;;;;7.63;7.13;;;;;23.30;101067.00;;;;2063103;28;20318;-57
2021/06/09 00:46:22;;;;;;;6.87;6.43;;;;;23.40;101074.00;;;;2087380;28;20220;-57
2021/06/09 00:47:22;;;;;;;6.90;6.40;;;;;23.30;101068.00;;;;2086035;28;20217;-57
2021/06/09 00:48:28;;;;;;;7.27;6.77;;;;;23.40;101065.00;;;;2071932;28;20729;-57
2021/06/09 00:49:29;;;;;;;6.63;6.22;;;;;23.40;101074.00;;;;2071740;28;20218;-59
2021/06/09 00:50:29;;;;;;;7.17;6.73;;;;;23.30;101028.00;;;;2071553;28;20222;-57
2021/06/09 00:51:29;;;;;;;7.30;6.80;;;;;23.30;101069.00;;;;2070825;28;20222;-58
2021/06/09 00:52:30;;;;;;;7.00;6.53;;;;;23.40;101067.00;;;;2071665;28;20245;-58
2021/06/09 00:53:39;;;;;;;6.73;6.30;;;;;23.30;101069.00;;;;2071000;28;20606;-59
2021/06/09 00:54:40;;;;;;;7.20;6.78;;;;;23.40;101064.00;;;;2071288;28;20603;-58
2021/06/09 00:55:40;;;;;;;7.03;6.53;;;;;23.40;101070.00;;;;2071690;28;20348;-58
2021/06/09 00:56:40;;;;;;;6.53;6.13;;;;;23.30;101070.00;;;;2071699;28;20226;-59
2021/06/09 00:57:41;;;;;;;7.33;6.73;;;;;23.30;101072.00;;;;2070940;28;20249;-58
2021/06/09 00:58:42;;;;;;;7.53;7.03;;;;;23.30;101063.00;;;;2070981;28;20242;-58
2021/06/09 00:59:42;;;;;;;6.72;6.32;;;;;23.30;101063.00;;;;2070748;28;20222;-57
2021/06/09 01:00:43;;;;;;;7.77;7.27;;;;;23.40;101068.00;;;;2071542;28;20494;-58
2021/06/09 01:01:43;;;;;;;6.90;6.40;;;;;23.40;101059.00;;;;2071154;28;20731;-58
2021/06/09 01:02:43;;;;;;;7.03;6.53;;;;;23.40;101059.00;;;;2074764;28;20559;-58
2021/06/09 01:03:44;;;;;;;7.63;7.13;;;;;23.40;101067.00;;;;2073824;28;20265;-58
2021/06/09 01:04:44;;;;;;;6.67;6.27;;;;;23.40;101060.00;;;;2071426;28;20269;-58
2021/06/09 01:05:45;;;;;;;6.93;6.43;;;;;23.30;101070.00;;;;2071629;28;20311;-57
2021/06/09 01:06:45;;;;;;;7.40;6.90;;;;;23.30;101053.00;;;;2071426;28;20222;-57
2021/06/09 01:07:45;;;;;;;6.90;6.40;;;;;23.30;101061.00;;;;2071325;28;20210;-57
2021/06/09 01:08:46;;;;;;;7.20;6.70;;;;;23.30;101059.00;;;;2071491;28;20214;-59
2021/06/09 01:09:46;;;;;;;6.83;6.43;;;;;23.30;101054.00;;;;2071348;28;20218;-58
2021/06/09 01:10:50;;;;;;;6.97;6.47;;;;;23.30;101058.00;;;;2071354;28;20300;-57
2021/06/09 01:11:50;;;;;;;6.85;6.35;;;;;23.30;101053.00;;;;2070234;28;20210;-59
2021/06/09 01:12:51;;;;;;;6.80;6.40;;;;;23.30;101054.00;;;;2070710;28;20656;-57
2021/06/09 01:13:51;;;;;;;7.80;7.30;;;;;23.30;101055.00;;;;2071098;28;20218;-59
2021/06/09 01:14:51;;;;;;;7.07;6.57;;;;;23.30;101045.00;;;;2070763;28;20222;-57
2021/06/09 01:15:52;;;;;;;7.23;6.80;;;;;23.30;101050.00;;;;2071535;28;20293;-59
2021/06/09 01:16:52;;;;;;;6.70;6.30;;;;;23.30;101043.00;;;;2071658;28;20226;-59
2021/06/09 01:17:53;;;;;;;6.83;6.43;;;;;23.30;101034.00;;;;2071758;28;20698;-57
2021/06/09 01:18:54;;;;;;;7.17;6.67;;;;;23.30;101041.00;;;;2070527;28;20260;-58
2021/06/09 01:19:54;;;;;;;7.40;6.90;;;;;23.30;101041.00;;;;2071789;28;20357;-58
2021/06/09 01:20:57;;;;;;;7.00;6.50;;;;;23.30;101047.00;;;;2072058;28;20210;-57
2021/06/09 01:21:57;;;;;;;6.80;6.40;;;;;23.30;101047.00;;;;2071064;28;20210;-57
2021/06/09 01:22:58;;;;;;;7.47;6.97;;;;;23.30;101044.00;;;;2071810;28;20310;-58
2021/06/09 01:23:58;;;;;;;6.73;6.33;;;;;23.30;101052.00;;;;2072026;28;20249;-57
2021/06/09 01:24:59;;;;;;;7.13;6.63;;;;;23.30;101049.00;;;;2071809;28;20253;-58
2021/06/09 01:25:59;;;;;;;7.40;6.90;;;;;23.30;101052.00;;;;2071375;28;20568;-58
2021/06/09 01:27:00;;;;;;;7.30;6.80;;;;;23.30;101043.00;;;;2071275;28;20278;-57
2021/06/09 01:28:00;;;;;;;6.73;6.30;;;;;23.30;101046.00;;;;2079547;28;20297;-58
2021/06/09 01:29:01;;;;;;;7.40;6.83;;;;;23.30;101052.00;;;;2079533;28;20217;-58
2021/06/09 01:30:04;;;;;;;7.73;7.23;;;;;23.30;101052.00;;;;2071932;28;20219;-58
2021/06/09 01:31:04;;;;;;;6.43;6.03;;;;;23.30;101050.00;;;;2070502;28;20694;-58
2021/06/09 01:32:05;;;;;;;6.97;6.57;;;;;23.30;101052.00;;;;2074839;28;20228;-58
2021/06/09 01:33:06;;;;;;;7.30;6.80;;;;;23.30;101051.00;;;;2071968;28;20204;-57
2021/06/09 01:34:06;;;;;;;7.10;6.60;;;;;23.30;101047.00;;;;2072348;28;20216;-58
2021/06/09 01:35:07;;;;;;;7.43;6.93;;;;;23.30;101054.00;;;;2071836;28;20214;-58
2021/06/09 01:36:08;;;;;;;7.20;6.70;;;;;23.30;101048.00;;;;2071453;28;20214;-57
2021/06/09 01:37:08;;;;;;;7.90;7.30;;;;;23.30;101049.00;;;;2072056;28;20284;-57
2021/06/09 01:38:09;;;;;;;7.73;7.23;;;;;23.30;101047.00;;;;2071993;28;20690;-58
2021/06/09 01:39:14;;;;;;;6.90;6.50;;;;;23.30;101050.00;;;;2071668;28;20309;-57
2021/06/09 01:40:21;;;;;;;7.20;6.80;;;;;23.30;101047.00;;;;2071892;28;20217;-58
2021/06/09 01:41:22;;;;;;;6.80;6.40;;;;;23.30;101046.00;;;;2070792;28;20349;-58
2021/06/09 01:42:26;;;;;;;7.30;6.80;;;;;23.30;101044.00;;;;2071942;28;20245;-57
2021/06/09 01:43:27;;;;;;;6.93;6.43;;;;;23.30;101051.00;;;;2070934;28;20515;-58
2021/06/09 01:44:27;;;;;;;7.30;6.87;;;;;23.30;101051.00;;;;2071600;28;20344;-58
2021/06/09 01:45:29;;;;;;;7.03;6.53;;;;;23.30;101053.00;;;;2071154;28;20214;-57
2021/06/09 01:46:29;;;;;;;7.00;6.53;;;;;23.30;101053.00;;;;2070310;28;20767;-58
2021/06/09 01:47:30;;;;;;;7.57;7.07;;;;;23.30;101058.00;;;;2078887;28;20218;-57
2021/06/09 01:48:30;;;;;;;7.20;6.60;;;;;23.30;101056.00;;;;2070625;28;20213;-58
2021/06/09 01:49:30;;;;;;;7.90;7.40;;;;;23.30;101055.00;;;;2078577;28;20300;-58
2021/06/09 01:50:31;;;;;;;7.43;6.93;;;;;23.30;101049.00;;;;2078622;28;20214;-57
2021/06/09 01:51:31;;;;;;;7.10;6.70;;;;;23.30;101057.00;;;;2078748;28;20217;-58
2021/06/09 01:52:32;;;;;;;7.17;6.67;;;;;23.30;101053.00;;;;2079884;28;20213;-58
2021/06/09 01:53:33;;;;;;;6.82;6.43;;;;;23.30;101051.00;;;;2079916;28;20733;-57
2021/06/09 01:54:33;;;;;;;6.90;6.40;;;;;23.30;101049.00;;;;2078995;28;20268;-58
2021/06/09 01:55:34;;;;;;;6.73;6.23;;;;;23.30;101051.00;;;;2078983;28;20224;-58
2021/06/09 01:56:35;;;;;;;6.70;6.30;;;;;23.30;101045.00;;;;2079896;28;20205;-57
2021/06/09 01:57:35;;;;;;;7.23;6.73;;;;;23.30;101047.00;;;;2079654;28;20228;-58
2021/06/09 01:58:36;;;;;;;6.83;6.37;;;;;23.30;101051.00;;;;2079239;28;20220;-58
2021/06/09 01:59:36;;;;;;;7.30;6.80;;;;;23.30;101052.00;;;;2079118;28;20237;-57
2021/06/09 02:00:41;;;;;;;6.63;6.23;;;;;23.30;101053.00;;;;2077109;28;20279;-57
2021/06/09 02:01:41;;;;;;;7.00;6.60;;;;;23.30;101049.00;;;;2065099;28;20232;-58
2021/06/09 02:02:42;;;;;;;6.93;6.43;;;;;23.30;101049.00;;;;2070953;28;20260;-58
2021/06/09 02:03:42;;;;;;;6.73;6.23;;;;;23.30;101055.00;;;;2081586;28;20217;-58
2021/06/09 02:04:42;;;;;;;7.07;6.57;;;;;23.30;101051.00;;;;2072995;28;20233;-58
2021/06/09 02:05:43;;;;;;;7.07;6.57;;;;;23.30;101053.00;;;;2069969;28;20574;-57
2021/06/09 02:06:44;;;;;;;6.93;6.43;;;;;23.30;101044.00;;;;2066923;28;20256;-58
2021/06/09 02:07:44;;;;;;;7.03;6.53;;;;;23.30;101053.00;;;;2087030;28;20215;-57
2021/06/09 02:08:44;;;;;;;6.47;6.07;;;;;23.30;101050.00;;;;2075210;28;20752;-57
2021/06/09 02:09:45;;;;;;;6.63;6.23;;;;;23.30;101045.00;;;;2069914;28;20313;-57
2021/06/09 02:10:45;;;;;;;7.10;6.60;;;;;23.30;101049.00;;;;2070296;28;20209;-57
2021/06/09 02:11:46;;;;;;;6.93;6.53;;;;;23.30;101053.00;;;;2078081;28;20213;-57
2021/06/09 02:12:49;;;;;;;6.97;6.50;;;;;23.30;101048.00;;;;2071536;28;20213;-58
2021/06/09 02:13:50;;;;;;;7.20;6.70;;;;;23.30;101050.00;;;;2070973;28;20261;-57
2021/06/09 02:14:50;;;;;;;7.07;6.57;;;;;23.30;101049.00;;;;2070688;28;20651;-57
2021/06/09 02:15:53;;;;;;;6.47;6.07;;;;;23.30;101049.00;;;;2070964;28;20230;-57
2021/06/09 02:16:53;;;;;;;6.93;6.50;;;;;23.30;101025.00;;;;2071613;28;20222;-58
2021/06/09 02:19:31;;;;;;;7.10;6.60;;;;;23.30;101041.00;;;;2053973;28;20216;-57
2021/06/09 02:20:31;;;;;;;7.20;6.70;;;;;23.30;101051.00;;;;2053782;28;20230;-61
2021/06/09 02:21:32;;;;;;;6.67;6.17;;;;;23.30;101051.00;;;;2063161;28;20219;-60
2021/06/09 02:22:34;;;;;;;7.13;6.63;;;;;23.30;101040.00;;;;2087204;28;20772;-58
2021/06/09 02:23:35;;;;;;;6.75;6.25;;;;;23.30;101045.00;;;;2070954;28;20214;-58
2021/06/09 02:24:35;;;;;;;6.70;6.30;;;;;23.30;101049.00;;;;2070453;28;20206;-58
2021/06/09 02:25:36;;;;;;;6.27;5.87;;;;;23.30;101041.00;;;;2070656;28;20206;-57
2021/06/09 02:26:38;;;;;;;6.93;6.53;;;;;23.30;101042.00;;;;2070913;28;20207;-57
2021/06/09 02:27:38;;;;;;;6.85;6.25;;;;;23.30;101045.00;;;;2071447;28;20229;-58
2021/06/09 02:28:41;;;;;;;6.80;6.40;;;;;23.30;101045.00;;;;2071645;28;20283;-57
2021/06/09 02:29:42;;;;;;;6.30;5.90;;;;;23.30;101047.00;;;;2071191;28;20301;-58
2021/06/09 02:30:42;;;;;;;6.80;6.40;;;;;23.30;101044.00;;;;2071366;28;20231;-58
2021/06/09 02:31:47;;;;;;;7.03;6.60;;;;;23.30;101045.00;;;;2071631;28;20634;-57
2021/06/09 02:32:48;;;;;;;6.90;6.50;;;;;23.30;101038.00;;;;2077524;28;20217;-57
2021/06/09 02:33:48;;;;;;;7.63;7.03;;;;;23.30;101036.00;;;;2064421;28;20602;-58
2021/06/09 02:34:49;;;;;;;7.43;6.93;;;;;23.30;101037.00;;;;2063048;28;20278;-58
2021/06/09 02:35:49;;;;;;;6.30;5.90;;;;;23.30;101044.00;;;;2071199;28;20257;-58
2021/06/09 02:36:53;;;;;;;6.47;6.07;;;;;23.30;101034.00;;;;2071516;28;20210;-57
2021/06/09 02:37:54;;;;;;;7.03;6.53;;;;;23.30;101038.00;;;;2071685;28;22404;-57
2021/06/09 02:38:56;;;;;;;6.50;6.10;;;;;23.30;101033.00;;;;2071150;28;20702;-57
2021/06/09 02:39:56;;;;;;;6.88;6.40;;;;;23.30;101040.00;;;;2070546;28;20218;-58
2021/06/09 02:40:57;;;;;;;7.27;6.77;;;;;23.30;101036.00;;;;2070440;28;20222;-58
2021/06/09 02:41:58;;;;;;;7.50;7.00;;;;;23.30;101038.00;;;;2071049;28;20691;-57
2021/06/09 02:42:58;;;;;;;6.63;6.23;;;;;23.30;101047.00;;;;2071354;28;20454;-58
2021/06/09 02:44:00;;;;;;;6.60;6.20;;;;;23.30;100985.00;;;;2071564;28;20226;-57
2021/06/09 02:45:00;;;;;;;7.32;6.82;;;;;23.30;101042.00;;;;2071334;28;20703;-57
2021/06/09 02:46:13;;;;;;;6.93;6.43;;;;;23.30;101045.00;;;;2071120;28;20233;-58
2021/06/09 02:47:15;;;;;;;6.50;6.10;;;;;23.30;101042.00;;;;2068860;28;20309;-57
2021/06/09 02:48:16;;;;;;;7.10;6.60;;;;;23.30;101040.00;;;;2070249;28;20210;-57
2021/06/09 02:49:17;;;;;;;7.70;7.20;;;;;23.30;101043.00;;;;2069852;28;20642;-57
2021/06/09 02:50:18;;;;;;;6.57;6.15;;;;;23.30;101042.00;;;;2070477;28;20457;-57
2021/06/09 02:51:18;;;;;;;6.93;6.43;;;;;23.30;101044.00;;;;2069621;28;20221;-57
2021/06/09 02:52:29;;;;;;;6.90;6.47;;;;;23.30;101048.00;;;;2070777;28;20496;-58
2021/06/09 02:53:38;;;;;;;7.20;6.70;;;;;23.30;101044.00;;;;2069112;28;20211;-57
2021/06/09 02:54:59;;;;;;;6.78;6.38;;;;;23.30;101042.00;;;;2080118;28;20218;-57
2021/06/09 02:56:09;;;;;;;7.18;6.68;;;;;23.30;101043.00;;;;2086808;28;20251;-58
2021/06/09 02:57:44;;;;;;;7.50;7.00;;;;;23.30;101045.00;;;;2083444;28;20574;-58
2021/06/09 02:59:26;;;;;;;6.80;6.40;;;;;23.30;101043.00;;;;2072016;28;20206;-57
2021/06/09 03:00:52;;;;;;;6.70;6.30;;;;;23.20;101046.00;;;;2077414;28;20209;-57
2021/06/09 03:02:02;;;;;;;7.10;6.70;;;;;23.30;101045.00;;;;2075495;28;20244;-58
2021/06/09 03:03:14;;;;;;;6.50;6.10;;;;;23.30;101048.00;;;;2069955;28;20244;-58
2021/06/09 03:04:22;;;;;;;6.68;6.28;;;;;23.30;101044.00;;;;2073132;28;20217;-57
2021/06/09 03:05:47;;;;;;;6.80;6.40;;;;;23.30;101047.00;;;;2063101;28;20989;-57
2021/06/09 03:07:15;;;;;;;7.15;6.65;;;;;23.30;101043.00;;;;2084557;28;20613;-57
2021/06/09 03:08:40;;;;;;;6.43;6.03;;;;;23.20;101044.00;;;;2079151;28;20301;-58
2021/06/09 03:10:05;;;;;;;6.22;5.72;;;;;23.30;101046.00;;;;2069660;28;20276;-57
2021/06/09 03:11:22;;;;;;;7.13;6.63;;;;;23.30;101048.00;;;;2069415;28;20217;-58
2021/06/09 03:12:32;;;;;;;6.70;6.20;;;;;23.30;101045.00;;;;2068761;28;20222;-57
2021/06/09 03:13:53;;;;;;;6.70;6.20;;;;;23.30;101041.00;;;;2070393;28;20309;-57
2021/06/09 03:15:13;;;;;;;6.30;5.90;;;;;23.30;101046.00;;;;2078353;28;20214;-58
2021/06/09 03:16:14;;;;;;;7.32;6.82;;;;;23.30;101049.00;;;;2069755;28;20614;-58
2021/06/09 03:17:16;;;;;;;6.93;6.43;;;;;23.30;101045.00;;;;2061436;28;20214;-57
2021/06/09 03:18:19;;;;;;;6.68;6.28;;;;;23.20;101046.00;;;;2070280;28;20214;-58
2021/06/09 03:19:57;;;;;;;6.53;6.13;;;;;23.30;101041.00;;;;2067691;28;20280;-58
2021/06/09 03:21:02;;;;;;;6.60;6.20;;;;;23.30;101056.00;;;;2068133;28;20221;-59
2021/06/09 03:22:25;;;;;;;6.68;6.20;;;;;23.20;101000.00;;;;2070196;28;20296;-58
2021/06/09 03:23:33;;;;;;;7.30;6.80;;;;;23.30;101046.00;;;;2070149;28;20750;-57
2021/06/09 03:24:36;;;;;;;6.80;6.35;;;;;23.30;101045.00;;;;2082150;28;20217;-58
2021/06/09 03:25:55;;;;;;;7.32;6.90;;;;;23.30;101043.00;;;;2085284;28;20201;-57
2021/06/09 03:27:01;;;;;;;6.85;6.45;;;;;23.30;101041.00;;;;2070268;28;20217;-57
2021/06/09 03:28:17;;;;;;;6.60;6.20;;;;;23.30;101043.00;;;;2070925;28;20226;-57
2021/06/09 03:29:22;;;;;;;6.70;6.30;;;;;23.30;101044.00;;;;2075321;28;20220;-58
2021/06/09 03:30:24;;;;;;;7.70;7.10;;;;;23.30;101038.00;;;;2070287;28;20218;-57
2021/06/09 03:31:27;;;;;;;6.55;6.15;;;;;23.30;101039.00;;;;2070653;28;20207;-58
2021/06/09 03:32:43;;;;;;;6.88;6.43;;;;;23.20;101042.00;;;;2076132;28;20217;-57
2021/06/09 03:33:45;;;;;;;7.85;7.25;;;;;23.20;101041.00;;;;2089122;28;20216;-57
2021/06/09 03:34:58;;;;;;;6.63;6.03;;;;;23.30;101031.00;;;;2076149;28;20221;-57
2021/06/09 03:36:22;;;;;;;7.15;6.65;;;;;23.20;101047.00;;;;2072128;28;20214;-58
2021/06/09 03:37:23;;;;;;;7.40;6.90;;;;;23.20;101027.00;;;;2069587;28;20227;-59
2021/06/09 03:38:28;;;;;;;6.70;6.30;;;;;23.30;101036.00;;;;2070470;28;20210;-58
2021/06/09 03:39:28;;;;;;;7.10;6.60;;;;;23.30;101027.00;;;;2070439;28;20270;-58
2021/06/09 03:40:30;;;;;;;6.97;6.47;;;;;23.30;101031.00;;;;2070136;28;20296;-58
2021/06/09 03:41:44;;;;;;;6.65;6.25;;;;;23.20;101025.00;;;;2069006;28;20222;-57
2021/06/09 03:42:49;;;;;;;6.75;6.25;;;;;23.30;101031.00;;;;2078233;28;20266;-58
2021/06/09 03:43:52;;;;;;;7.40;6.90;;;;;23.20;101038.00;;;;2077477;28;20205;-57
2021/06/09 03:44:53;;;;;;;7.07;6.57;;;;;23.30;101033.00;;;;2071017;28;20606;-58
2021/06/09 03:45:53;;;;;;;7.17;6.67;;;;;23.20;101034.00;;;;2070949;28;20293;-57
2021/06/09 03:46:54;;;;;;;7.20;6.70;;;;;23.20;101030.00;;;;2076425;28;20225;-57
2021/06/09 03:47:55;;;;;;;6.57;6.17;;;;;23.20;101038.00;;;;2078433;28;20664;-58
2021/06/09 03:48:56;;;;;;;6.50;6.10;;;;;23.30;101038.00;;;;2078528;28;20689;-57
2021/06/09 03:49:56;;;;;;;7.20;6.70;;;;;23.20;101042.00;;;;2070067;28;20213;-58
2021/06/09 03:50:59;;;;;;;6.40;6.00;;;;;23.20;101026.00;;;;2086594;28;20740;-58
2021/06/09 03:51:59;;;;;;;7.03;6.50;;;;;23.30;101034.00;;;;2086272;28;20263;-57
2021/06/09 03:53:03;;;;;;;6.87;6.37;;;;;23.20;101032.00;;;;2078357;28;20213;-57
2021/06/09 03:54:03;;;;;;;7.13;6.68;;;;;23.20;101040.00;;;;2086497;28;20221;-57
2021/06/09 03:55:06;;;;;;;6.87;6.47;;;;;23.30;101031.00;;;;2086417;28;20343;-57
2021/06/09 03:56:06;;;;;;;6.97;6.57;;;;;23.30;101037.00;;;;2077874;28;20229;-57
2021/06/09 03:57:07;;;;;;;6.47;6.07;;;;;23.30;101048.00;;;;2077953;28;20216;-58
2021/06/09 03:58:08;;;;;;;6.67;6.20;;;;;23.20;101037.00;;;;2078110;28;20228;-57
2021/06/09 03:59:09;;;;;;;7.45;6.95;;;;;23.20;101045.00;;;;2061630;28;20402;-57
2021/06/09 04:00:10;;;;;;;6.65;6.25;;;;;23.30;101035.00;;;;2069650;28;20214;-58
2021/06/09 04:01:10;;;;;;;7.37;6.97;;;;;23.20;101040.00;;;;2077181;28;20295;-58
2021/06/09 04:02:11;;;;;;;6.70;6.30;;;;;23.20;101031.00;;;;2073934;28;20218;-58
2021/06/09 04:03:12;;;;;;;6.63;6.23;;;;;23.30;101050.00;;;;2071534;28;20221;-58
2021/06/09 04:04:19;;;;;;;6.88;6.38;;;;;23.30;101041.00;;;;2071708;28;20218;-57
2021/06/09 04:05:20;;;;;;;8.18;7.57;;;;;23.20;101042.00;;;;2069831;28;20722;-57
2021/06/09 04:06:21;;;;;;;7.20;6.70;;;;;23.20;101044.00;;;;2070246;28;20218;-57
2021/06/09 04:07:22;;;;;;;7.00;6.50;;;;;23.20;101038.00;;;;2070204;28;20595;-58
2021/06/09 04:08:22;;;;;;;6.95;6.55;;;;;23.20;101037.00;;;;2062228;28;20218;-58
2021/06/09 04:09:23;;;;;;;6.70;6.30;;;;;23.20;101040.00;;;;2070664;28;20214;-59
2021/06/09 04:10:23;;;;;;;7.43;6.93;;;;;23.30;101023.00;;;;2070326;28;20215;-58
2021/06/09 04:11:23;;;;;;;6.53;6.13;;;;;23.30;101038.00;;;;2070306;28;20237;-58
2021/06/09 04:12:24;;;;;;;6.50;6.10;;;;;23.30;101037.00;;;;2071943;28;20198;-57
2021/06/09 04:13:24;;;;;;;6.77;6.37;;;;;23.30;101032.00;;;;2073649;28;20345;-57
2021/06/09 04:14:28;;;;;;;7.13;6.63;;;;;23.30;101025.00;;;;2071915;28;20301;-57
2021/06/09 04:15:29;;;;;;;7.10;6.65;;;;;23.30;101018.00;;;;2079857;28;20225;-57
2021/06/09 04:16:31;;;;;;;6.57;6.17;;;;;23.30;101024.00;;;;2079937;28;20287;-58
2021/06/09 04:17:31;;;;;;;6.70;6.30;;;;;23.20;101032.00;;;;2080100;28;20220;-58
2021/06/09 04:18:31;;;;;;;6.60;6.10;;;;;23.30;101024.00;;;;2079925;28;21025;-58
2021/06/09 04:19:36;;;;;;;6.87;6.47;;;;;23.20;101029.00;;;;2079892;28;20642;-58
2021/06/09 04:20:38;;;;;;;6.72;6.32;;;;;23.20;101019.00;;;;2079802;28;20214;-57
2021/06/09 04:21:38;;;;;;;7.10;6.60;;;;;23.20;101031.00;;;;2078970;28;20218;-57
2021/06/09 04:22:39;;;;;;;6.90;6.40;;;;;23.20;101034.00;;;;2080031;28;21411;-57
2021/06/09 04:23:39;;;;;;;6.83;6.43;;;;;23.20;101033.00;;;;2079844;28;20243;-58
2021/06/09 04:24:40;;;;;;;6.67;6.27;;;;;23.20;101028.00;;;;2080667;28;20228;-58
2021/06/09 04:25:40;;;;;;;6.90;6.50;;;;;23.20;101034.00;;;;2079762;28;20680;-57
2021/06/09 04:26:41;;;;;;;6.60;6.20;;;;;23.20;101033.00;;;;2079544;28;20297;-58
2021/06/09 04:27:43;;;;;;;6.97;6.47;;;;;23.20;101031.00;;;;2079961;28;20283;-58
2021/06/09 04:28:44;;;;;;;7.00;6.50;;;;;23.20;101029.00;;;;2079809;28;20217;-57
2021/06/09 04:29:44;;;;;;;7.27;6.77;;;;;23.20;101023.00;;;;2079884;28;20292;-57
2021/06/09 04:30:46;;;;;;;6.70;6.30;;;;;23.30;101038.00;;;;2087511;28;20220;-57
2021/06/09 04:31:46;;;;;;;7.40;6.90;;;;;23.20;101033.00;;;;2077324;28;20224;-58
2021/06/09 04:32:56;;;;;;;6.87;6.47;;;;;23.20;101031.00;;;;2063857;28;20701;-57
2021/06/09 04:33:57;;;;;;;8.15;7.50;;;;;23.20;101033.00;;;;2072508;28;20218;-58
2021/06/09 04:34:58;;;;;;;7.50;7.00;;;;;23.10;101039.00;;;;2065199;28;20233;-57
2021/06/09 04:35:59;;;;;;;7.03;6.55;;;;;23.20;101032.00;;;;2088161;28;20258;-58
2021/06/09 04:36:59;;;;;;;7.07;6.67;;;;;23.20;101035.00;;;;2086161;28;20724;-58
2021/06/09 04:37:59;;;;;;;7.30;6.80;;;;;23.20;101032.00;;;;2072433;28;20207;-58
2021/06/09 04:39:00;;;;;;;6.50;6.10;;;;;23.20;101035.00;;;;2072373;28;20206;-58
2021/06/09 04:40:00;;;;;;;7.27;6.77;;;;;23.20;101029.00;;;;2071301;28;20668;-58
2021/06/09 04:41:00;;;;;;;7.13;6.63;;;;;23.20;101043.00;;;;2070627;28;20211;-59
2021/06/09 04:42:01;;;;;;;6.33;5.83;;;;;23.20;101035.00;;;;2071544;28;20210;-58
2021/06/09 04:43:01;;;;;;;7.20;6.70;;;;;23.20;101027.00;;;;2071055;28;20221;-58
2021/06/09 04:44:02;;;;;;;7.60;7.10;;;;;23.30;101031.00;;;;2079571;28;20213;-58
2021/06/09 04:45:02;;;;;;;6.60;6.20;;;;;23.30;101032.00;;;;2071918;28;20238;-58
2021/06/09 04:46:03;;;;;;;7.10;6.70;;;;;23.20;101029.00;;;;2072198;28;20222;-57
2021/06/09 04:47:03;;;;;;;6.40;6.00;;;;;23.20;101031.00;;;;2072276;28;20207;-57
2021/06/09 04:48:10;;;;;;;7.20;6.70;;;;;23.30;101036.00;;;;2071623;28;20207;-58
2021/06/09 04:49:11;;;;;;;7.15;6.65;;;;;23.20;101027.00;;;;2071275;28;20687;-57
2021/06/09 04:50:12;;;;;;;7.20;6.70;;;;;23.20;101025.00;;;;2072111;28;20214;-57
2021/06/09 04:51:12;;;;;;;7.15;6.65;;;;;23.20;101031.00;;;;2070998;28;20214;-58
2021/06/09 04:52:13;;;;;;;7.43;6.93;;;;;23.30;101037.00;;;;2072337;28;20220;-58
2021/06/09 04:53:18;;;;;;;7.20;6.70;;;;;23.20;101032.00;;;;2071775;28;20241;-58
2021/06/09 04:54:18;;;;;;;7.35;6.85;;;;;23.20;101031.00;;;;2072092;28;20750;-58
2021/06/09 04:55:19;;;;;;;6.47;6.00;;;;;23.30;101038.00;;;;2071741;28;20225;-58
2021/06/09 04:56:19;;;;;;;7.63;7.13;;;;;23.30;101043.00;;;;2070938;28;20214;-57
2021/06/09 04:57:20;;;;;;;7.87;7.27;;;;;23.30;101036.00;;;;2070619;28;20214;-57
2021/06/09 04:58:21;;;;;;;7.73;7.23;;;;;23.20;101037.00;;;;2071536;28;20210;-57
2021/06/09 04:59:22;;;;;;;7.43;6.93;;;;;23.20;101029.00;;;;2071512;28;20214;-58
2021/06/09 05:00:22;;;;;;;6.47;6.00;;;;;23.30;101038.00;;;;2071133;28;20222;-58
2021/06/09 05:01:23;;;;;;;5.90;5.60;;;;;23.20;101030.00;;;;2070282;28;20947;-58
2021/06/09 05:02:23;;;;;;;6.63;6.23;;;;;23.30;101025.00;;;;2075493;28;20738;-58
2021/06/09 05:03:23;;;;;;;6.73;6.33;;;;;23.30;101030.00;;;;2079171;28;20302;-57
2021/06/09 05:04:24;;;;;;;6.80;6.30;;;;;23.30;101033.00;;;;2078845;28;20217;-58
2021/06/09 05:05:24;;;;;;;6.80;6.40;;;;;23.30;101031.00;;;;2071713;28;20225;-57
2021/06/09 05:06:25;;;;;;;7.90;7.00;;;;;23.20;101024.00;;;;2071625;28;20241;-57
2021/06/09 05:07:26;;;;;;;6.53;6.13;;;;;23.20;101032.00;;;;2071685;28;20582;-58
2021/06/09 05:08:26;;;;;;;7.60;7.10;;;;;23.30;101032.00;;;;2071229;28;20241;-60
2021/06/09 05:09:27;;;;;;;7.37;6.87;;;;;23.30;101034.00;;;;2071600;28;20214;-59
2021/06/09 05:10:27;;;;;;;7.10;6.60;;;;;23.30;101032.00;;;;2070552;28;20345;-57
2021/06/09 05:11:48;;;;;;;7.30;6.80;;;;;23.20;101029.00;;;;2069807;28;20372;-57
2021/06/09 05:12:53;;;;;;;7.55;7.05;;;;;23.20;101020.00;;;;2065332;28;20594;-58